createdAt,value
2024-01-19T11:00:42.932Z,83.50
2024-01-19T11:05:47.515Z,80.80
2024-01-19T11:10:50.884Z,80.44
2024-01-19T11:16:00.189Z,80.73
2024-01-19T11:21:03.454Z,79.29
2024-01-19T11:26:11.400Z,78.83
2024-01-19T11:31:19.815Z,78.80
2024-01-19T11:36:49.732Z,78.29
2024-01-19T11:41:52.823Z,78.53
2024-01-19T11:46:55.940Z,77.91
2024-01-19T11:52:02.167Z,78.36
2024-01-19T11:57:24.746Z,77.18
2024-01-19T12:02:33.165Z,79.24
2024-01-19T12:07:36.360Z,77.76
2024-01-19T12:12:40.905Z,76.82
2024-01-19T12:17:45.917Z,77.98
2024-01-19T12:22:57.152Z,76.61
2024-01-19T12:28:06.950Z,76.01
2024-01-19T12:33:32.672Z,75.57
2024-01-19T12:38:36.909Z,76.23
2024-01-19T12:43:40.070Z,75.09
2024-01-19T12:48:56.649Z,73.97
2024-01-19T12:54:00.633Z,77.21
2024-01-19T12:59:09.040Z,76.52
2024-01-19T13:04:14.396Z,76.06
2024-01-19T13:09:18.756Z,76.11
2024-01-19T13:14:28.086Z,73.92
2024-01-19T13:19:31.943Z,74.19
2024-01-19T13:24:34.780Z,75.21
2024-01-19T13:29:38.554Z,73.93
2024-01-19T13:34:41.718Z,75.76
2024-01-19T13:39:44.503Z,75.92
2024-01-19T13:44:47.970Z,73.22
2024-01-19T13:49:51.672Z,71.53
2024-01-19T13:54:54.799Z,74.43
2024-01-19T13:59:58.724Z,72.87
2024-01-19T14:05:04.804Z,71.94
2024-01-19T14:10:08.836Z,72.26
2024-01-19T14:15:11.996Z,70.85
2024-01-19T14:20:14.940Z,70.43
2024-01-19T14:25:17.785Z,71.76
2024-01-19T14:30:20.906Z,70.68
2024-01-19T14:35:24.777Z,71.58
2024-01-19T14:40:28.027Z,71.19
2024-01-19T14:45:30.919Z,71.99
2024-01-19T14:50:34.623Z,70.95
2024-01-19T14:55:38.033Z,73.50
2024-01-19T15:00:41.181Z,70.88
2024-01-19T15:05:44.311Z,71.15
2024-01-19T15:10:48.179Z,70.19
2024-01-19T15:15:51.106Z,71.53
2024-01-19T15:20:53.909Z,71.01
2024-01-19T15:25:56.788Z,70.87
2024-01-19T15:30:59.916Z,73.20
2024-01-19T15:36:04.249Z,70.61
2024-01-19T15:41:07.121Z,73.45
2024-01-19T15:46:10.234Z,70.48
2024-01-19T15:51:28.116Z,71.71
2024-01-19T15:56:37.286Z,73.47
2024-01-19T16:01:42.036Z,72.16
2024-01-19T16:06:45.227Z,73.11
2024-01-19T16:11:49.698Z,73.76
2024-01-19T16:16:53.603Z,74.58
2024-01-19T16:21:57.560Z,74.60
2024-01-19T16:27:01.955Z,73.59
2024-01-19T16:32:05.581Z,75.52
2024-01-19T16:37:08.645Z,75.77
2024-01-19T16:42:11.476Z,75.85
2024-01-19T16:47:14.447Z,76.16
2024-01-19T16:52:17.559Z,75.80
2024-01-19T16:57:20.665Z,76.69
2024-01-19T17:02:23.738Z,76.05
2024-01-19T17:07:26.764Z,76.07
2024-01-19T17:12:30.588Z,76.44
2024-01-19T17:17:33.467Z,78.37
2024-01-19T17:22:36.458Z,77.35
2024-01-19T17:27:39.578Z,77.60
2024-01-19T17:32:42.502Z,76.31
2024-01-19T17:37:45.837Z,77.41
2024-01-19T17:42:49.235Z,77.86
2024-01-19T17:47:53.885Z,78.61
2024-01-19T17:52:57.566Z,79.39
2024-01-19T17:58:00.414Z,79.31
2024-01-19T18:03:06.591Z,79.78
2024-01-19T18:08:09.689Z,80.75
2024-01-19T18:13:12.645Z,80.08
2024-01-19T18:18:24.169Z,79.14
2024-01-19T18:23:33.975Z,80.71
2024-01-19T18:28:37.502Z,82.07
2024-01-19T18:33:42.680Z,80.24
2024-01-19T18:38:46.775Z,79.34
2024-01-19T18:43:49.592Z,79.11
2024-01-19T18:48:52.514Z,78.40
2024-01-19T18:53:55.445Z,79.36
2024-01-19T18:58:58.773Z,80.62
2024-01-19T19:04:02.816Z,81.28
2024-01-19T19:09:07.046Z,78.22
2024-01-19T19:14:11.317Z,79.39
2024-01-19T19:19:15.002Z,79.81
2024-01-19T19:24:18.625Z,80.22
2024-01-19T19:29:21.657Z,79.43
2024-01-19T19:34:24.498Z,78.66
2024-01-19T19:39:27.366Z,78.00
2024-01-19T19:44:30.293Z,79.45
2024-01-19T19:49:33.183Z,79.57
2024-01-19T19:54:36.480Z,78.63
2024-01-19T19:59:39.413Z,76.61
2024-01-19T20:04:42.274Z,78.86
2024-01-19T20:09:45.125Z,78.28
2024-01-19T20:14:49.302Z,78.04
2024-01-19T20:19:52.351Z,80.04
2024-01-19T20:24:55.172Z,76.81
2024-01-19T20:29:58.074Z,76.75
2024-01-19T20:35:01.546Z,79.13
2024-01-19T20:40:07.252Z,79.48
2024-01-19T20:45:13.402Z,78.61
2024-01-19T20:50:16.475Z,81.39
2024-01-19T20:55:19.471Z,81.27
2024-01-19T21:00:23.775Z,80.66
2024-01-19T21:05:27.216Z,79.45
2024-01-19T21:10:30.483Z,80.09
2024-01-19T21:15:34.690Z,79.13
2024-01-19T21:20:37.665Z,77.47
2024-01-19T21:25:40.892Z,79.04
2024-01-19T21:30:43.885Z,78.10
2024-01-19T21:35:47.708Z,79.13
2024-01-19T21:40:50.797Z,78.80
2024-01-19T21:45:53.625Z,76.54
2024-01-19T21:50:57.269Z,79.34
2024-01-19T21:56:01.533Z,78.36
2024-01-19T22:01:04.944Z,79.49
2024-01-19T22:06:09.985Z,80.06
2024-01-19T22:11:13.111Z,79.32
2024-01-19T22:16:17.850Z,78.29
2024-01-19T22:21:21.219Z,78.58
2024-01-19T22:26:24.200Z,78.49
2024-01-19T22:31:27.237Z,77.66
2024-01-19T22:36:30.974Z,78.64
2024-01-19T22:41:34.058Z,78.37
2024-01-19T22:46:37.143Z,78.93
2024-01-19T22:51:40.423Z,80.22
2024-01-19T22:56:43.627Z,78.90
2024-01-19T23:01:48.445Z,78.24
2024-01-19T23:06:51.463Z,78.78
2024-01-19T23:11:54.606Z,80.39
2024-01-19T23:16:57.844Z,78.30
2024-01-19T23:22:01.924Z,78.46
2024-01-19T23:27:05.414Z,78.64
2024-01-19T23:32:08.956Z,79.60
2024-01-19T23:37:12.050Z,79.46
2024-01-19T23:42:15.241Z,79.35
2024-01-19T23:47:18.220Z,78.70
2024-01-19T23:52:21.207Z,78.51
2024-01-19T23:57:24.083Z,77.47
